createdAt,value
2023-03-29T00:02:18.337Z,3.37
2023-03-29T00:04:45.109Z,4.00
2023-03-29T00:07:14.066Z,3.47
2023-03-29T00:09:40.477Z,3.60
2023-03-29T00:12:07.137Z,4.23
2023-03-29T00:14:33.562Z,3.70
2023-03-29T00:17:00.024Z,4.53
2023-03-29T00:19:26.560Z,3.57
2023-03-29T00:21:53.045Z,3.13
2023-03-29T00:24:21.032Z,3.40
2023-03-29T00:26:47.647Z,3.23
2023-03-29T00:29:14.030Z,3.20
2023-03-29T00:31:40.420Z,3.97
2023-03-29T00:34:07.210Z,4.20
2023-03-29T00:36:33.639Z,3.53
2023-03-29T00:39:00.006Z,3.67
2023-03-29T00:41:26.414Z,3.50
2023-03-29T00:43:59.498Z,4.23
2023-03-29T00:46:27.452Z,4.33
2023-03-29T00:48:56.513Z,4.40
2023-03-29T00:51:25.398Z,4.47
2023-03-29T00:53:56.356Z,3.90
2023-03-29T00:56:37.095Z,4.30
2023-03-29T00:59:07.135Z,4.33
2023-03-29T01:01:54.595Z,4.10
2023-03-29T01:04:30.930Z,4.13
2023-03-29T01:07:03.596Z,3.77
2023-03-29T01:09:33.416Z,4.30
2023-03-29T01:12:03.315Z,4.40
2023-03-29T01:14:33.870Z,4.50
2023-03-29T01:17:00.398Z,4.07
2023-03-29T01:19:30.330Z,4.23
2023-03-29T01:22:04.787Z,3.97
2023-03-29T01:24:46.223Z,4.90
2023-03-29T01:27:18.147Z,4.63
2023-03-29T01:29:48.985Z,4.83
2023-03-29T01:32:23.512Z,4.40
2023-03-29T01:34:58.698Z,4.53
2023-03-29T01:37:28.730Z,4.47
2023-03-29T01:39:55.210Z,4.50
2023-03-29T01:42:31.002Z,4.40
2023-03-29T01:45:00.443Z,4.10
2023-03-29T01:47:32.826Z,4.07
2023-03-29T01:50:06.451Z,4.50
2023-03-29T01:52:39.983Z,4.07
2023-03-29T01:55:17.296Z,4.20
2023-03-29T01:57:45.275Z,4.10
2023-03-29T02:00:19.211Z,5.37
2023-03-29T02:02:46.547Z,4.50
2023-03-29T02:05:14.840Z,4.27
2023-03-29T02:07:43.549Z,4.23
2023-03-29T02:10:11.553Z,4.17
2023-03-29T02:12:38.225Z,4.90
2023-03-29T02:15:16.225Z,4.33
2023-03-29T02:17:44.152Z,4.13
2023-03-29T02:20:17.181Z,4.57
2023-03-29T02:22:58.956Z,3.90
2023-03-29T02:25:25.964Z,4.80
2023-03-29T02:27:52.841Z,4.40
2023-03-29T02:30:21.057Z,4.77
2023-03-29T02:32:51.468Z,4.33
2023-03-29T02:35:22.326Z,4.87
2023-03-29T02:37:51.512Z,5.10
2023-03-29T02:40:18.128Z,4.97
2023-03-29T02:42:45.575Z,5.20
2023-03-29T02:45:14.491Z,5.20
2023-03-29T02:47:48.271Z,5.93
2023-03-29T02:50:14.769Z,5.87
2023-03-29T02:52:43.459Z,5.43
2023-03-29T02:55:14.947Z,5.50
2023-03-29T02:57:43.427Z,5.80
2023-03-29T03:00:11.249Z,6.13
2023-03-29T03:02:37.945Z,6.53
2023-03-29T03:05:05.719Z,6.37
2023-03-29T03:07:33.683Z,5.83
2023-03-29T03:10:00.151Z,7.60
2023-03-29T03:12:27.089Z,7.40
2023-03-29T03:14:53.591Z,7.63
2023-03-29T03:17:20.014Z,8.27
2023-03-29T03:19:46.496Z,8.20
2023-03-29T03:22:13.111Z,8.70
2023-03-29T03:24:39.536Z,8.87
2023-03-29T03:27:06.234Z,9.83
2023-03-29T03:29:32.714Z,9.97
2023-03-29T03:31:59.119Z,9.03
2023-03-29T03:34:26.218Z,10.37
2023-03-29T03:36:54.583Z,10.63
2023-03-29T03:39:20.967Z,11.10
2023-03-29T03:41:47.406Z,11.30
2023-03-29T03:44:13.904Z,10.93
2023-03-29T03:46:40.325Z,10.83
2023-03-29T03:49:06.710Z,10.97
2023-03-29T03:51:33.845Z,10.27
2023-03-29T03:54:00.313Z,11.57
2023-03-29T03:56:29.804Z,11.50
2023-03-29T03:58:56.941Z,11.30
2023-03-29T04:01:23.975Z,12.43
2023-03-29T04:03:50.840Z,10.80
2023-03-29T04:06:17.374Z,11.07
2023-03-29T04:08:43.840Z,10.97
2023-03-29T04:11:10.558Z,9.77
2023-03-29T04:13:37.052Z,11.20
2023-03-29T04:16:03.672Z,10.10
2023-03-29T04:18:30.214Z,11.20
2023-03-29T04:20:57.180Z,10.23
2023-03-29T04:23:23.649Z,9.93
2023-03-29T04:25:50.131Z,9.90
2023-03-29T04:28:16.515Z,9.97
2023-03-29T04:30:43.172Z,9.83
2023-03-29T04:33:10.224Z,9.63
2023-03-29T04:35:36.782Z,8.77
2023-03-29T04:38:04.337Z,9.10
2023-03-29T04:40:30.773Z,8.90
2023-03-29T04:42:57.211Z,8.23
2023-03-29T04:45:23.744Z,8.70
2023-03-29T04:47:50.159Z,7.53
2023-03-29T04:50:16.577Z,8.83
2023-03-29T04:52:43.023Z,7.90
2023-03-29T04:55:10.476Z,7.77
2023-03-29T04:57:36.871Z,7.70
2023-03-29T05:00:08.336Z,8.30
2023-03-29T05:02:34.728Z,6.77
2023-03-29T05:05:01.119Z,7.20
2023-03-29T05:07:28.067Z,6.93
2023-03-29T05:09:54.483Z,6.70
2023-03-29T05:12:20.852Z,6.30
2023-03-29T05:14:47.344Z,6.37
2023-03-29T05:17:13.776Z,6.73
2023-03-29T05:19:43.309Z,6.93
2023-03-29T05:22:09.732Z,6.47
2023-03-29T05:24:36.128Z,6.60
2023-03-29T05:27:02.605Z,5.60
2023-03-29T05:29:29.039Z,5.83
2023-03-29T05:31:55.503Z,6.50
2023-03-29T05:34:22.426Z,6.07
2023-03-29T05:36:49.205Z,5.80
2023-03-29T05:39:15.642Z,5.63
2023-03-29T05:41:42.012Z,6.00
2023-03-29T05:44:08.524Z,5.40
2023-03-29T05:46:35.147Z,5.37
2023-03-29T05:49:02.354Z,6.00
2023-03-29T05:51:28.781Z,5.13
2023-03-29T05:53:55.447Z,5.53
2023-03-29T05:56:22.459Z,5.47
2023-03-29T05:58:49.661Z,5.40
2023-03-29T06:01:17.934Z,5.20
2023-03-29T06:03:46.420Z,5.27
2023-03-29T06:06:16.485Z,4.87
2023-03-29T06:08:44.031Z,4.60
2023-03-29T06:11:11.907Z,5.30
2023-03-29T06:13:39.051Z,5.30
2023-03-29T06:16:06.425Z,5.10
2023-03-29T06:18:33.292Z,5.10
2023-03-29T06:21:00.714Z,5.17
2023-03-29T06:23:27.300Z,4.87
2023-03-29T06:25:55.348Z,4.93
2023-03-29T06:28:22.667Z,5.00
2023-03-29T06:30:49.366Z,4.97
2023-03-29T06:33:16.939Z,5.10
2023-03-29T06:35:44.328Z,4.50
2023-03-29T06:38:11.382Z,4.70
2023-03-29T06:40:38.134Z,4.70
2023-03-29T06:43:05.314Z,4.97
2023-03-29T06:45:34.106Z,4.57
2023-03-29T06:48:00.581Z,4.50
2023-03-29T06:50:27.363Z,4.97
2023-03-29T06:52:53.804Z,4.97
2023-03-29T06:55:21.782Z,5.00
2023-03-29T06:57:48.882Z,5.07
2023-03-29T07:00:18.319Z,5.03
2023-03-29T07:02:45.942Z,4.80
2023-03-29T07:05:13.496Z,4.30
2023-03-29T07:07:59.596Z,4.63
2023-03-29T07:10:34.844Z,4.50
2023-03-29T07:13:01.240Z,5.10
2023-03-29T07:15:29.316Z,4.70
2023-03-29T07:17:56.130Z,4.60
2023-03-29T07:20:23.173Z,4.27
2023-03-29T07:22:52.913Z,4.77
2023-03-29T07:25:23.547Z,4.20
2023-03-29T07:27:50.726Z,4.93
2023-03-29T07:30:19.797Z,5.13
2023-03-29T07:32:46.924Z,4.60
2023-03-29T07:35:14.825Z,4.43
2023-03-29T07:37:42.836Z,4.63
2023-03-29T07:40:15.977Z,4.60
2023-03-29T07:42:43.900Z,4.70
2023-03-29T07:45:11.444Z,5.27
2023-03-29T07:47:38.371Z,5.27
2023-03-29T07:50:05.339Z,5.47
2023-03-29T07:52:38.051Z,5.70
2023-03-29T07:55:06.352Z,5.70
2023-03-29T07:57:32.761Z,5.00
2023-03-29T07:59:59.269Z,5.07
2023-03-29T08:02:27.094Z,4.90
2023-03-29T08:04:54.241Z,4.73
2023-03-29T08:07:21.069Z,4.60
2023-03-29T08:09:47.614Z,5.17
2023-03-29T08:12:13.977Z,5.20
2023-03-29T08:14:40.506Z,5.07
2023-03-29T08:17:07.301Z,4.67
2023-03-29T08:19:33.781Z,4.90
2023-03-29T08:22:00.522Z,5.03
2023-03-29T08:24:27.245Z,4.70
2023-03-29T08:26:53.921Z,4.77
2023-03-29T08:29:20.577Z,5.00
2023-03-29T08:31:47.135Z,5.40
2023-03-29T08:34:13.946Z,5.10
2023-03-29T08:36:40.411Z,4.87
2023-03-29T08:39:06.894Z,4.80
2023-03-29T08:41:36.718Z,5.03
2023-03-29T08:44:39.596Z,5.07
2023-03-29T08:47:07.176Z,5.10
2023-03-29T08:49:35.779Z,5.00
2023-03-29T08:52:06.706Z,5.40
2023-03-29T08:54:37.068Z,5.33
2023-03-29T08:57:16.988Z,5.53
2023-03-29T08:59:44.243Z,5.73
2023-03-29T09:02:16.692Z,6.00
2023-03-29T09:04:43.680Z,5.30
2023-03-29T09:07:10.924Z,5.27
2023-03-29T09:09:38.172Z,5.80
2023-03-29T09:12:16.636Z,5.60
2023-03-29T09:15:01.644Z,5.53
2023-03-29T09:18:09.267Z,5.83
2023-03-29T09:21:04.681Z,5.77
2023-03-29T09:23:55.854Z,5.97
2023-03-29T09:26:41.442Z,6.47
2023-03-29T09:29:31.045Z,6.87
2023-03-29T09:31:58.583Z,6.27
2023-03-29T09:34:39.448Z,6.90
2023-03-29T09:37:12.222Z,6.60
2023-03-29T09:39:40.064Z,5.63
2023-03-29T09:42:09.135Z,6.87
2023-03-29T09:44:41.610Z,6.63
2023-03-29T09:47:12.592Z,7.50
2023-03-29T09:49:43.392Z,7.10
2023-03-29T09:52:13.321Z,7.30
2023-03-29T09:54:40.210Z,6.83
2023-03-29T09:57:06.978Z,7.53
2023-03-29T09:59:33.407Z,7.37
2023-03-29T10:02:09.090Z,8.47
2023-03-29T10:04:35.939Z,7.83
2023-03-29T10:07:04.128Z,8.23
2023-03-29T10:09:30.729Z,7.90
2023-03-29T10:12:02.220Z,7.83
2023-03-29T10:14:42.625Z,7.57
2023-03-29T10:17:25.120Z,7.37
2023-03-29T10:19:55.788Z,7.33
2023-03-29T10:22:24.942Z,7.90
2023-03-29T10:24:53.105Z,7.67
2023-03-29T10:27:25.673Z,7.20
2023-03-29T10:29:52.296Z,7.80
2023-03-29T10:32:33.584Z,8.60
2023-03-29T10:35:10.677Z,7.90
2023-03-29T10:37:43.156Z,8.23
2023-03-29T10:40:22.073Z,8.73
2023-03-29T10:42:53.800Z,8.10
2023-03-29T10:45:24.793Z,8.70
2023-03-29T10:47:51.372Z,9.17
2023-03-29T10:50:17.898Z,9.73
2023-03-29T10:52:44.332Z,9.93
2023-03-29T10:55:13.367Z,8.73
2023-03-29T10:57:49.917Z,9.73
2023-03-29T11:00:21.107Z,9.33
2023-03-29T11:03:03.118Z,9.33
2023-03-29T11:05:37.349Z,9.13
2023-03-29T11:08:13.067Z,8.23
2023-03-29T11:10:42.520Z,8.93
2023-03-29T11:13:33.174Z,8.70
2023-03-29T11:16:14.787Z,8.13
2023-03-29T11:18:56.347Z,8.97
2023-03-29T11:21:42.713Z,8.73
2023-03-29T11:24:26.804Z,9.03
2023-03-29T11:27:17.923Z,8.33
2023-03-29T11:29:47.223Z,9.20
2023-03-29T11:32:38.608Z,8.13
2023-03-29T11:35:37.764Z,8.30
2023-03-29T11:38:13.700Z,8.37
2023-03-29T11:40:58.440Z,8.47
2023-03-29T11:43:49.746Z,8.07
2023-03-29T11:46:23.878Z,7.90
2023-03-29T11:48:53.940Z,7.20
2023-03-29T11:51:26.772Z,8.57
2023-03-29T11:54:01.975Z,8.30
2023-03-29T11:56:35.219Z,8.17
2023-03-29T11:59:16.779Z,9.00
2023-03-29T12:01:48.908Z,8.80
2023-03-29T12:04:24.042Z,8.70
2023-03-29T12:07:05.176Z,8.70
2023-03-29T12:09:36.559Z,9.40
2023-03-29T12:12:47.548Z,9.17
2023-03-29T12:15:20.046Z,8.73
2023-03-29T12:18:01.167Z,9.23
2023-03-29T12:20:31.612Z,8.80
2023-03-29T12:22:58.079Z,8.97
2023-03-29T12:25:37.906Z,8.63
2023-03-29T12:28:23.335Z,8.70
2023-03-29T12:30:57.048Z,9.27
2023-03-29T12:33:43.860Z,9.43
2023-03-29T12:36:13.251Z,9.47
2023-03-29T12:38:40.522Z,9.07
2023-03-29T12:41:21.712Z,8.67
2023-03-29T12:43:48.782Z,9.40
2023-03-29T12:46:24.630Z,9.57
2023-03-29T12:48:57.323Z,9.43
2023-03-29T12:51:30.747Z,9.37
2023-03-29T12:54:15.911Z,10.03
2023-03-29T12:57:19.101Z,9.47
2023-03-29T12:59:48.045Z,8.93
2023-03-29T13:02:14.492Z,8.63
2023-03-29T13:04:43.716Z,9.13
2023-03-29T13:07:29.977Z,8.63
2023-03-29T13:10:02.537Z,9.43
2023-03-29T13:12:35.669Z,9.00
2023-03-29T13:15:23.540Z,8.67
2023-03-29T13:17:49.937Z,8.57
2023-03-29T13:20:51.774Z,9.80
2023-03-29T13:23:31.735Z,8.73
2023-03-29T13:26:27.005Z,8.97
2023-03-29T13:29:12.099Z,9.73
2023-03-29T13:31:41.261Z,8.67
2023-03-29T13:34:17.714Z,8.97
2023-03-29T13:37:00.103Z,8.73
2023-03-29T13:39:32.182Z,8.83
2023-03-29T13:42:26.914Z,9.07
2023-03-29T13:45:19.199Z,9.03
2023-03-29T13:47:58.380Z,8.47
2023-03-29T13:50:38.259Z,7.97
2023-03-29T13:53:06.659Z,8.13
2023-03-29T13:55:38.470Z,9.20
2023-03-29T13:58:32.741Z,8.40
2023-03-29T14:01:02.630Z,7.93
2023-03-29T14:03:31.863Z,8.70
2023-03-29T14:06:00.710Z,8.60
2023-03-29T14:08:39.533Z,8.20
2023-03-29T14:12:39.559Z,9.20
2023-03-29T14:15:08.576Z,8.73
2023-03-29T14:17:36.457Z,7.80
2023-03-29T14:20:08.783Z,7.67
2023-03-29T14:22:35.802Z,8.50
2023-03-29T14:25:12.385Z,8.63
2023-03-29T14:27:39.053Z,7.30
2023-03-29T14:30:23.261Z,8.07
2023-03-29T14:32:51.250Z,7.60
2023-03-29T14:35:18.298Z,7.87
2023-03-29T14:37:46.436Z,7.50
2023-03-29T14:40:19.049Z,7.63
2023-03-29T14:42:47.312Z,8.03
2023-03-29T14:45:15.771Z,8.50
2023-03-29T14:47:42.868Z,8.40
2023-03-29T14:50:17.555Z,8.17
2023-03-29T14:52:46.396Z,8.23
2023-03-29T14:55:14.692Z,8.07
2023-03-29T14:57:42.140Z,8.60
2023-03-29T15:00:38.999Z,8.67
2023-03-29T15:03:15.402Z,8.93
2023-03-29T15:05:46.736Z,9.27
2023-03-29T15:08:16.185Z,9.07
2023-03-29T15:10:44.908Z,10.00
2023-03-29T15:13:17.394Z,9.60
2023-03-29T15:15:44.193Z,9.37
2023-03-29T15:18:14.025Z,9.50
2023-03-29T15:20:41.379Z,8.63
2023-03-29T15:23:16.815Z,9.50
2023-03-29T15:25:50.694Z,9.77
2023-03-29T15:28:32.616Z,9.13
2023-03-29T15:31:14.027Z,8.60
2023-03-29T15:33:41.638Z,8.57
2023-03-29T15:36:09.928Z,8.57
2023-03-29T15:38:44.130Z,8.03
2023-03-29T15:41:13.473Z,8.37
2023-03-29T15:43:41.340Z,7.50
2023-03-29T15:46:08.229Z,7.93
2023-03-29T15:48:34.914Z,8.07
2023-03-29T15:51:06.214Z,7.57
2023-03-29T15:53:33.279Z,7.93
2023-03-29T15:56:01.676Z,9.57
2023-03-29T15:58:30.786Z,8.53
2023-03-29T16:01:02.450Z,9.17
2023-03-29T16:03:29.051Z,9.23
2023-03-29T16:05:56.892Z,8.67
2023-03-29T16:08:24.942Z,8.87
2023-03-29T16:10:51.473Z,9.67
2023-03-29T16:13:17.904Z,9.03
2023-03-29T16:15:44.435Z,9.43
2023-03-29T16:18:10.957Z,9.20
2023-03-29T16:20:38.225Z,10.00
2023-03-29T16:23:09.235Z,9.60
2023-03-29T16:25:38.000Z,9.63
2023-03-29T16:28:05.626Z,9.50
2023-03-29T16:30:32.916Z,10.20
2023-03-29T16:32:59.411Z,10.30
2023-03-29T16:35:31.164Z,10.17
2023-03-29T16:37:57.722Z,10.17
2023-03-29T16:40:24.170Z,9.80
2023-03-29T16:42:51.298Z,10.27
2023-03-29T16:45:18.623Z,9.97
2023-03-29T16:47:45.503Z,10.83
2023-03-29T16:50:16.356Z,9.93
2023-03-29T16:52:43.125Z,10.17
2023-03-29T16:55:12.191Z,10.87
2023-03-29T16:57:40.106Z,10.47
2023-03-29T17:00:10.909Z,10.67
2023-03-29T17:02:37.411Z,9.63
2023-03-29T17:05:04.022Z,9.60
2023-03-29T17:07:30.706Z,10.13
2023-03-29T17:09:57.250Z,10.30
2023-03-29T17:12:23.855Z,10.33
2023-03-29T17:14:51.043Z,9.70
2023-03-29T17:17:17.421Z,10.10
2023-03-29T17:19:43.863Z,10.10
2023-03-29T17:22:10.266Z,10.90
2023-03-29T17:24:36.625Z,10.93
2023-03-29T17:27:03.062Z,10.93
2023-03-29T17:29:29.569Z,11.50
2023-03-29T17:31:56.008Z,11.07
2023-03-29T17:34:22.740Z,10.53
2023-03-29T17:36:49.154Z,10.83
2023-03-29T17:39:15.684Z,10.97
2023-03-29T17:41:43.208Z,11.17
2023-03-29T17:44:09.737Z,12.00
2023-03-29T17:46:37.788Z,11.63
2023-03-29T17:49:05.071Z,11.57
2023-03-29T17:51:31.486Z,12.33
2023-03-29T17:53:58.286Z,11.40
2023-03-29T17:56:24.900Z,12.30
2023-03-29T17:58:51.928Z,11.80
2023-03-29T18:01:22.025Z,11.73
2023-03-29T18:03:48.688Z,13.83
2023-03-29T18:06:19.426Z,13.07
2023-03-29T18:08:46.307Z,14.17
2023-03-29T18:11:16.078Z,14.60
2023-03-29T18:13:44.031Z,13.97
2023-03-29T18:16:12.275Z,15.47
2023-03-29T18:18:38.725Z,17.27
2023-03-29T18:21:06.941Z,18.47
2023-03-29T18:23:33.861Z,18.97
2023-03-29T18:26:03.597Z,17.73
2023-03-29T18:28:30.916Z,18.37
2023-03-29T18:30:57.769Z,18.63
2023-03-29T18:33:24.906Z,18.03
2023-03-29T18:35:52.032Z,18.40
2023-03-29T18:38:19.449Z,16.17
2023-03-29T18:40:47.230Z,16.70
2023-03-29T18:43:13.972Z,16.70
2023-03-29T18:45:40.383Z,18.60
2023-03-29T18:48:08.035Z,18.20
2023-03-29T18:50:35.986Z,24.77
2023-03-29T18:53:02.650Z,21.30
2023-03-29T18:55:29.432Z,19.03
2023-03-29T18:57:55.969Z,18.63
2023-03-29T19:00:22.798Z,19.37
2023-03-29T19:02:49.389Z,19.00
2023-03-29T19:05:16.007Z,18.87
2023-03-29T19:07:42.374Z,19.83
2023-03-29T19:10:08.990Z,20.80
2023-03-29T19:12:35.651Z,18.67
2023-03-29T19:15:02.122Z,20.07
2023-03-29T19:17:28.571Z,20.30
2023-03-29T19:19:56.532Z,22.17
2023-03-29T19:22:22.948Z,20.17
2023-03-29T19:24:49.706Z,21.63
2023-03-29T19:27:16.495Z,22.57
2023-03-29T19:29:42.962Z,21.33
2023-03-29T19:32:09.433Z,23.47
2023-03-29T19:34:36.160Z,22.30
2023-03-29T19:37:02.582Z,25.33
2023-03-29T19:39:29.820Z,23.40
2023-03-29T19:41:56.511Z,25.30
2023-03-29T19:44:25.864Z,23.70
2023-03-29T19:46:52.310Z,23.23
2023-03-29T19:49:18.782Z,24.33
2023-03-29T19:51:45.235Z,25.43
2023-03-29T19:54:14.792Z,24.93
2023-03-29T19:56:42.853Z,24.83
2023-03-29T19:59:11.244Z,27.43
2023-03-29T20:01:39.191Z,25.80
2023-03-29T20:04:05.941Z,26.60
2023-03-29T20:06:32.383Z,25.13
2023-03-29T20:08:58.837Z,25.33
2023-03-29T20:11:25.678Z,26.53
2023-03-29T20:13:52.370Z,27.30
2023-03-29T20:16:19.209Z,25.67
2023-03-29T20:18:46.506Z,26.00
2023-03-29T20:21:16.347Z,26.90
2023-03-29T20:23:43.174Z,26.23
2023-03-29T20:26:10.478Z,27.73
2023-03-29T20:28:40.044Z,27.10
2023-03-29T20:31:09.019Z,27.27
2023-03-29T20:33:35.601Z,26.90
2023-03-29T20:36:02.198Z,25.70
2023-03-29T20:38:28.932Z,24.87
2023-03-29T20:40:55.443Z,25.77
2023-03-29T20:43:21.898Z,26.27
2023-03-29T20:45:53.573Z,24.60
2023-03-29T20:48:30.201Z,25.17
2023-03-29T20:50:57.695Z,25.63
2023-03-29T20:53:24.971Z,25.80
2023-03-29T20:55:51.927Z,24.77
2023-03-29T20:58:18.320Z,24.70
2023-03-29T21:00:45.235Z,25.30
2023-03-29T21:03:12.209Z,23.70
2023-03-29T21:05:39.023Z,24.80
2023-03-29T21:08:05.688Z,26.47
2023-03-29T21:10:32.110Z,25.73
2023-03-29T21:13:00.266Z,27.67
2023-03-29T21:15:28.611Z,26.63
2023-03-29T21:17:55.158Z,26.73
2023-03-29T21:20:21.692Z,26.53
2023-03-29T21:22:48.076Z,26.07
2023-03-29T21:25:15.824Z,25.77
2023-03-29T21:27:42.621Z,24.93
2023-03-29T21:30:09.915Z,27.10
2023-03-29T21:32:36.530Z,26.13
2023-03-29T21:35:03.124Z,26.10
2023-03-29T21:37:29.537Z,26.67
2023-03-29T21:39:55.962Z,26.00
2023-03-29T21:42:22.584Z,27.57
2023-03-29T21:44:48.998Z,25.37
2023-03-29T21:47:15.646Z,26.03
2023-03-29T21:49:42.037Z,26.13
2023-03-29T21:52:08.653Z,26.23
2023-03-29T21:54:35.364Z,24.73
2023-03-29T21:57:01.871Z,25.70
2023-03-29T21:59:28.330Z,25.90
2023-03-29T22:01:55.037Z,26.20
2023-03-29T22:04:35.241Z,26.10
2023-03-29T22:07:03.238Z,25.23
2023-03-29T22:09:29.750Z,24.17
2023-03-29T22:11:56.818Z,24.80
2023-03-29T22:14:23.253Z,24.47
2023-03-29T22:16:49.707Z,24.77
2023-03-29T22:19:16.121Z,24.70
2023-03-29T22:21:42.570Z,24.73
2023-03-29T22:24:08.920Z,24.60
2023-03-29T22:26:35.564Z,23.27
2023-03-29T22:29:02.496Z,23.40
2023-03-29T22:31:29.671Z,24.40
2023-03-29T22:33:56.222Z,23.77
2023-03-29T22:36:28.249Z,23.63
2023-03-29T22:38:55.277Z,24.37
2023-03-29T22:41:23.683Z,23.60
2023-03-29T22:43:54.479Z,26.00
2023-03-29T22:46:21.358Z,23.70
2023-03-29T22:48:48.230Z,23.60
2023-03-29T22:51:14.838Z,23.00
2023-03-29T22:53:41.428Z,22.57
2023-03-29T22:56:09.136Z,22.63
2023-03-29T22:58:36.850Z,22.53
2023-03-29T23:01:03.885Z,22.90
2023-03-29T23:03:31.002Z,21.00
2023-03-29T23:05:58.869Z,22.47
2023-03-29T23:08:26.346Z,22.33
2023-03-29T23:10:52.786Z,21.00
2023-03-29T23:13:29.433Z,19.70
2023-03-29T23:15:58.802Z,20.90
2023-03-29T23:18:26.814Z,20.50
2023-03-29T23:20:54.724Z,20.60
2023-03-29T23:23:21.949Z,21.07
2023-03-29T23:25:49.438Z,20.77
2023-03-29T23:28:21.540Z,21.20
2023-03-29T23:31:02.751Z,18.70
2023-03-29T23:33:33.331Z,19.87
2023-03-29T23:36:03.224Z,19.83
2023-03-29T23:38:30.670Z,20.40
2023-03-29T23:41:02.163Z,20.70
2023-03-29T23:43:33.954Z,21.07
2023-03-29T23:46:05.050Z,21.03
2023-03-29T23:48:32.537Z,21.17
2023-03-29T23:50:58.959Z,20.60
2023-03-29T23:53:28.326Z,20.53
2023-03-29T23:56:02.365Z,19.57
2023-03-29T23:58:33.668Z,19.93
